sensor_id;sensor_type;location;lat;lon;timestamp;P1;durP1;ratioP1;P2;durP2;ratioP2
10418;SDS011;5256;48.728;9.140;2023-07-08T00:02:09;0.20;;;0.20;;
10418;SDS011;5256;48.728;9.140;2023-07-08T00:04:37;0.20;;;0.20;;
10418;SDS011;5256;48.728;9.140;2023-07-08T00:07:03;0.20;;;0.20;;
10418;SDS011;5256;48.728;9.140;2023-07-08T00:09:29;0.30;;;0.30;;
10418;SDS011;5256;48.728;9.140;2023-07-08T00:11:55;0.20;;;0.20;;
10418;SDS011;5256;48.728;9.140;2023-07-08T00:14:22;0.20;;;0.20;;
10418;SDS011;5256;48.728;9.140;2023-07-08T00:16:48;0.30;;;0.30;;
10418;SDS011;5256;48.728;9.140;2023-07-08T00:19:14;0.30;;;0.30;;
10418;SDS011;5256;48.728;9.140;2023-07-08T00:21:44;0.20;;;0.20;;
10418;SDS011;5256;48.728;9.140;2023-07-08T00:24:10;0.20;;;0.20;;
10418;SDS011;5256;48.728;9.140;2023-07-08T00:26:36;0.30;;;0.30;;
10418;SDS011;5256;48.728;9.140;2023-07-08T00:29:02;0.30;;;0.30;;
10418;SDS011;5256;48.728;9.140;2023-07-08T00:31:27;0.23;;;0.23;;
10418;SDS011;5256;48.728;9.140;2023-07-08T00:33:56;0.20;;;0.20;;
10418;SDS011;5256;48.728;9.140;2023-07-08T00:36:22;0.20;;;0.20;;
10418;SDS011;5256;48.728;9.140;2023-07-08T00:38:50;0.20;;;0.20;;
10418;SDS011;5256;48.728;9.140;2023-07-08T00:41:29;0.20;;;0.20;;
10418;SDS011;5256;48.728;9.140;2023-07-08T00:43:59;0.20;;;0.20;;
10418;SDS011;5256;48.728;9.140;2023-07-08T00:49:01;0.30;;;0.30;;
10418;SDS011;5256;48.728;9.140;2023-07-08T00:51:31;0.20;;;0.20;;
10418;SDS011;5256;48.728;9.140;2023-07-08T00:53:58;0.20;;;0.20;;
10418;SDS011;5256;48.728;9.140;2023-07-08T00:59:26;0.20;;;0.20;;
10418;SDS011;5256;48.728;9.140;2023-07-08T01:01:56;0.20;;;0.20;;
10418;SDS011;5256;48.728;9.140;2023-07-08T01:04:30;0.30;;;0.30;;
10418;SDS011;5256;48.728;9.140;2023-07-08T01:07:07;0.20;;;0.20;;
10418;SDS011;5256;48.728;9.140;2023-07-08T01:09:35;0.30;;;0.30;;
10418;SDS011;5256;48.728;9.140;2023-07-08T01:12:08;0.30;;;0.30;;
10418;SDS011;5256;48.728;9.140;2023-07-08T01:14:38;0.20;;;0.20;;
10418;SDS011;5256;48.728;9.140;2023-07-08T01:17:07;0.30;;;0.30;;
10418;SDS011;5256;48.728;9.140;2023-07-08T01:19:36;0.30;;;0.30;;
10418;SDS011;5256;48.728;9.140;2023-07-08T01:22:03;0.30;;;0.30;;
10418;SDS011;5256;48.728;9.140;2023-07-08T01:24:30;0.30;;;0.30;;
10418;SDS011;5256;48.728;9.140;2023-07-08T01:26:58;0.30;;;0.30;;
10418;SDS011;5256;48.728;9.140;2023-07-08T01:29:26;0.30;;;0.30;;
10418;SDS011;5256;48.728;9.140;2023-07-08T01:31:51;0.30;;;0.30;;
10418;SDS011;5256;48.728;9.140;2023-07-08T01:34:20;0.30;;;0.30;;
10418;SDS011;5256;48.728;9.140;2023-07-08T01:36:48;0.20;;;0.20;;
10418;SDS011;5256;48.728;9.140;2023-07-08T01:39:19;0.20;;;0.20;;
10418;SDS011;5256;48.728;9.140;2023-07-08T01:41:46;0.20;;;0.20;;
10418;SDS011;5256;48.728;9.140;2023-07-08T01:44:19;0.20;;;0.20;;
10418;SDS011;5256;48.728;9.140;2023-07-08T01:46:53;0.30;;;0.30;;
10418;SDS011;5256;48.728;9.140;2023-07-08T01:49:22;0.20;;;0.20;;
10418;SDS011;5256;48.728;9.140;2023-07-08T01:51:49;0.20;;;0.20;;
10418;SDS011;5256;48.728;9.140;2023-07-08T01:54:15;0.20;;;0.20;;
10418;SDS011;5256;48.728;9.140;2023-07-08T01:56:41;0.30;;;0.30;;
10418;SDS011;5256;48.728;9.140;2023-07-08T01:59:06;0.30;;;0.30;;
10418;SDS011;5256;48.728;9.140;2023-07-08T02:01:32;0.20;;;0.20;;
10418;SDS011;5256;48.728;9.140;2023-07-08T02:03:58;0.30;;;0.30;;
10418;SDS011;5256;48.728;9.140;2023-07-08T02:06:23;0.30;;;0.30;;
10418;SDS011;5256;48.728;9.140;2023-07-08T02:08:49;0.30;;;0.30;;
10418;SDS011;5256;48.728;9.140;2023-07-08T02:11:16;0.20;;;0.20;;
10418;SDS011;5256;48.728;9.140;2023-07-08T02:13:41;0.30;;;0.30;;
10418;SDS011;5256;48.728;9.140;2023-07-08T02:16:07;0.20;;;0.20;;
10418;SDS011;5256;48.728;9.140;2023-07-08T02:18:32;0.23;;;0.23;;
10418;SDS011;5256;48.728;9.140;2023-07-08T02:20:58;0.30;;;0.30;;
10418;SDS011;5256;48.728;9.140;2023-07-08T02:23:24;0.30;;;0.30;;
10418;SDS011;5256;48.728;9.140;2023-07-08T02:25:51;0.30;;;0.30;;
10418;SDS011;5256;48.728;9.140;2023-07-08T02:28:18;0.20;;;0.20;;
10418;SDS011;5256;48.728;9.140;2023-07-08T02:30:44;0.20;;;0.20;;
10418;SDS011;5256;48.728;9.140;2023-07-08T02:33:11;0.30;;;0.30;;
10418;SDS011;5256;48.728;9.140;2023-07-08T02:35:38;0.30;;;0.30;;
10418;SDS011;5256;48.728;9.140;2023-07-08T02:38:03;0.30;;;0.30;;
10418;SDS011;5256;48.728;9.140;2023-07-08T02:40:29;0.30;;;0.30;;
10418;SDS011;5256;48.728;9.140;2023-07-08T02:42:55;0.30;;;0.30;;
10418;SDS011;5256;48.728;9.140;2023-07-08T02:45:20;0.20;;;0.20;;
10418;SDS011;5256;48.728;9.140;2023-07-08T02:47:46;0.23;;;0.23;;
10418;SDS011;5256;48.728;9.140;2023-07-08T02:50:11;0.20;;;0.20;;
10418;SDS011;5256;48.728;9.140;2023-07-08T02:52:38;0.30;;;0.30;;
10418;SDS011;5256;48.728;9.140;2023-07-08T02:55:04;0.30;;;0.30;;
10418;SDS011;5256;48.728;9.140;2023-07-08T02:57:30;0.20;;;0.20;;
10418;SDS011;5256;48.728;9.140;2023-07-08T02:59:55;0.30;;;0.30;;
10418;SDS011;5256;48.728;9.140;2023-07-08T03:02:21;0.30;;;0.30;;
10418;SDS011;5256;48.728;9.140;2023-07-08T03:04:47;0.20;;;0.20;;
10418;SDS011;5256;48.728;9.140;2023-07-08T03:07:14;0.20;;;0.20;;
10418;SDS011;5256;48.728;9.140;2023-07-08T03:09:41;0.20;;;0.20;;
10418;SDS011;5256;48.728;9.140;2023-07-08T03:12:07;0.40;;;0.40;;
10418;SDS011;5256;48.728;9.140;2023-07-08T03:14:34;0.30;;;0.30;;
10418;SDS011;5256;48.728;9.140;2023-07-08T03:16:59;0.20;;;0.20;;
10418;SDS011;5256;48.728;9.140;2023-07-08T03:19:25;0.30;;;0.30;;
10418;SDS011;5256;48.728;9.140;2023-07-08T03:21:51;0.30;;;0.30;;
10418;SDS011;5256;48.728;9.140;2023-07-08T03:24:17;0.30;;;0.30;;
10418;SDS011;5256;48.728;9.140;2023-07-08T03:26:45;0.20;;;0.20;;
10418;SDS011;5256;48.728;9.140;2023-07-08T03:29:14;0.20;;;0.20;;
10418;SDS011;5256;48.728;9.140;2023-07-08T03:31:41;0.30;;;0.30;;
10418;SDS011;5256;48.728;9.140;2023-07-08T03:34:10;0.30;;;0.30;;
10418;SDS011;5256;48.728;9.140;2023-07-08T03:36:40;0.20;;;0.20;;
10418;SDS011;5256;48.728;9.140;2023-07-08T03:39:18;0.20;;;0.20;;
10418;SDS011;5256;48.728;9.140;2023-07-08T03:41:45;0.20;;;0.20;;
10418;SDS011;5256;48.728;9.140;2023-07-08T03:44:12;0.20;;;0.20;;
10418;SDS011;5256;48.728;9.140;2023-07-08T03:46:38;0.30;;;0.30;;
10418;SDS011;5256;48.728;9.140;2023-07-08T03:49:04;0.30;;;0.30;;
10418;SDS011;5256;48.728;9.140;2023-07-08T03:51:32;0.30;;;0.30;;
10418;SDS011;5256;48.728;9.140;2023-07-08T03:54:00;0.40;;;0.40;;
10418;SDS011;5256;48.728;9.140;2023-07-08T03:56:26;0.20;;;0.20;;
10418;SDS011;5256;48.728;9.140;2023-07-08T03:58:52;0.30;;;0.30;;
10418;SDS011;5256;48.728;9.140;2023-07-08T04:01:18;0.20;;;0.20;;
10418;SDS011;5256;48.728;9.140;2023-07-08T04:03:46;0.20;;;0.20;;
10418;SDS011;5256;48.728;9.140;2023-07-08T04:06:12;0.20;;;0.20;;
10418;SDS011;5256;48.728;9.140;2023-07-08T04:08:38;0.20;;;0.20;;
10418;SDS011;5256;48.728;9.140;2023-07-08T04:11:04;0.20;;;0.20;;
10418;SDS011;5256;48.728;9.140;2023-07-08T04:13:30;0.30;;;0.30;;
10418;SDS011;5256;48.728;9.140;2023-07-08T04:15:58;0.20;;;0.20;;
10418;SDS011;5256;48.728;9.140;2023-07-08T04:18:26;0.30;;;0.30;;
10418;SDS011;5256;48.728;9.140;2023-07-08T04:20:51;0.20;;;0.20;;
10418;SDS011;5256;48.728;9.140;2023-07-08T04:23:18;0.20;;;0.20;;
10418;SDS011;5256;48.728;9.140;2023-07-08T04:25:45;0.20;;;0.20;;
10418;SDS011;5256;48.728;9.140;2023-07-08T04:28:11;0.20;;;0.20;;
10418;SDS011;5256;48.728;9.140;2023-07-08T04:30:37;0.30;;;0.30;;
10418;SDS011;5256;48.728;9.140;2023-07-08T04:33:06;0.20;;;0.20;;
10418;SDS011;5256;48.728;9.140;2023-07-08T04:35:36;0.20;;;0.20;;
10418;SDS011;5256;48.728;9.140;2023-07-08T04:38:04;0.20;;;0.20;;
10418;SDS011;5256;48.728;9.140;2023-07-08T04:40:34;0.20;;;0.20;;
10418;SDS011;5256;48.728;9.140;2023-07-08T04:43:08;0.20;;;0.20;;
10418;SDS011;5256;48.728;9.140;2023-07-08T04:45:35;0.20;;;0.20;;
10418;SDS011;5256;48.728;9.140;2023-07-08T04:48:02;0.20;;;0.20;;
10418;SDS011;5256;48.728;9.140;2023-07-08T04:50:39;0.20;;;0.20;;
10418;SDS011;5256;48.728;9.140;2023-07-08T04:53:06;0.23;;;0.23;;
10418;SDS011;5256;48.728;9.140;2023-07-08T04:55:32;0.20;;;0.20;;
10418;SDS011;5256;48.728;9.140;2023-07-08T04:57:58;0.20;;;0.20;;
10418;SDS011;5256;48.728;9.140;2023-07-08T05:00:23;0.20;;;0.20;;
10418;SDS011;5256;48.728;9.140;2023-07-08T05:02:49;0.20;;;0.20;;
10418;SDS011;5256;48.728;9.140;2023-07-08T05:05:15;0.20;;;0.20;;
10418;SDS011;5256;48.728;9.140;2023-07-08T05:07:40;0.20;;;0.20;;
10418;SDS011;5256;48.728;9.140;2023-07-08T05:10:06;0.10;;;0.10;;
10418;SDS011;5256;48.728;9.140;2023-07-08T05:12:32;0.20;;;0.20;;
10418;SDS011;5256;48.728;9.140;2023-07-08T05:14:57;0.20;;;0.20;;
10418;SDS011;5256;48.728;9.140;2023-07-08T05:17:23;0.10;;;0.10;;
10418;SDS011;5256;48.728;9.140;2023-07-08T05:19:50;0.20;;;0.20;;
10418;SDS011;5256;48.728;9.140;2023-07-08T05:22:16;0.10;;;0.10;;
10418;SDS011;5256;48.728;9.140;2023-07-08T05:24:43;0.10;;;0.10;;
10418;SDS011;5256;48.728;9.140;2023-07-08T05:27:09;0.10;;;0.10;;
10418;SDS011;5256;48.728;9.140;2023-07-08T05:29:34;0.10;;;0.10;;
10418;SDS011;5256;48.728;9.140;2023-07-08T05:32:00;0.10;;;0.10;;
10418;SDS011;5256;48.728;9.140;2023-07-08T05:34:25;0.20;;;0.20;;
10418;SDS011;5256;48.728;9.140;2023-07-08T05:36:51;0.20;;;0.20;;
10418;SDS011;5256;48.728;9.140;2023-07-08T05:39:16;0.20;;;0.20;;
10418;SDS011;5256;48.728;9.140;2023-07-08T05:41:42;0.10;;;0.10;;
10418;SDS011;5256;48.728;9.140;2023-07-08T05:44:07;0.20;;;0.20;;
10418;SDS011;5256;48.728;9.140;2023-07-08T05:46:33;0.10;;;0.10;;
10418;SDS011;5256;48.728;9.140;2023-07-08T05:48:59;0.20;;;0.20;;
10418;SDS011;5256;48.728;9.140;2023-07-08T05:51:24;0.10;;;0.10;;
10418;SDS011;5256;48.728;9.140;2023-07-08T05:53:50;0.20;;;0.20;;
10418;SDS011;5256;48.728;9.140;2023-07-08T05:56:15;0.20;;;0.20;;
10418;SDS011;5256;48.728;9.140;2023-07-08T05:58:41;0.20;;;0.20;;
10418;SDS011;5256;48.728;9.140;2023-07-08T06:01:06;0.10;;;0.10;;
10418;SDS011;5256;48.728;9.140;2023-07-08T06:03:32;0.20;;;0.20;;
10418;SDS011;5256;48.728;9.140;2023-07-08T06:05:57;0.20;;;0.20;;
10418;SDS011;5256;48.728;9.140;2023-07-08T06:08:23;0.10;;;0.10;;
10418;SDS011;5256;48.728;9.140;2023-07-08T06:10:49;0.20;;;0.20;;
10418;SDS011;5256;48.728;9.140;2023-07-08T06:13:16;0.13;;;0.13;;
10418;SDS011;5256;48.728;9.140;2023-07-08T06:15:41;0.10;;;0.10;;
10418;SDS011;5256;48.728;9.140;2023-07-08T06:18:07;0.20;;;0.20;;
10418;SDS011;5256;48.728;9.140;2023-07-08T06:20:33;0.10;;;0.10;;
10418;SDS011;5256;48.728;9.140;2023-07-08T06:22:59;0.10;;;0.10;;
10418;SDS011;5256;48.728;9.140;2023-07-08T06:25:24;0.10;;;0.10;;
10418;SDS011;5256;48.728;9.140;2023-07-08T06:27:50;0.10;;;0.10;;
10418;SDS011;5256;48.728;9.140;2023-07-08T06:30:15;0.10;;;0.10;;
10418;SDS011;5256;48.728;9.140;2023-07-08T06:32:41;0.10;;;0.10;;
10418;SDS011;5256;48.728;9.140;2023-07-08T06:35:07;0.10;;;0.10;;
10418;SDS011;5256;48.728;9.140;2023-07-08T06:37:32;0.10;;;0.10;;
10418;SDS011;5256;48.728;9.140;2023-07-08T06:39:58;0.10;;;0.10;;
10418;SDS011;5256;48.728;9.140;2023-07-08T06:42:24;0.10;;;0.10;;
10418;SDS011;5256;48.728;9.140;2023-07-08T06:44:49;0.10;;;0.10;;
10418;SDS011;5256;48.728;9.140;2023-07-08T06:47:16;0.10;;;0.10;;
10418;SDS011;5256;48.728;9.140;2023-07-08T06:49:43;0.10;;;0.10;;
10418;SDS011;5256;48.728;9.140;2023-07-08T06:52:08;0.10;;;0.10;;
10418;SDS011;5256;48.728;9.140;2023-07-08T06:54:34;0.10;;;0.10;;
10418;SDS011;5256;48.728;9.140;2023-07-08T06:57:00;0.10;;;0.10;;
10418;SDS011;5256;48.728;9.140;2023-07-08T06:59:25;0.10;;;0.10;;
10418;SDS011;5256;48.728;9.140;2023-07-08T07:01:51;0.10;;;0.10;;
10418;SDS011;5256;48.728;9.140;2023-07-08T07:04:16;0.10;;;0.10;;
10418;SDS011;5256;48.728;9.140;2023-07-08T07:06:42;0.10;;;0.10;;
10418;SDS011;5256;48.728;9.140;2023-07-08T07:09:07;0.10;;;0.10;;
10418;SDS011;5256;48.728;9.140;2023-07-08T07:11:33;0.10;;;0.10;;
10418;SDS011;5256;48.728;9.140;2023-07-08T07:13:58;0.10;;;0.10;;
10418;SDS011;5256;48.728;9.140;2023-07-08T07:16:24;0.10;;;0.10;;
10418;SDS011;5256;48.728;9.140;2023-07-08T07:18:50;0.13;;;0.13;;
10418;SDS011;5256;48.728;9.140;2023-07-08T07:21:16;0.20;;;0.20;;
10418;SDS011;5256;48.728;9.140;2023-07-08T07:23:42;0.10;;;0.10;;
10418;SDS011;5256;48.728;9.140;2023-07-08T07:26:08;0.20;;;0.20;;
10418;SDS011;5256;48.728;9.140;2023-07-08T07:28:34;0.20;;;0.20;;
10418;SDS011;5256;48.728;9.140;2023-07-08T07:31:00;0.10;;;0.10;;
10418;SDS011;5256;48.728;9.140;2023-07-08T07:33:25;0.10;;;0.10;;
10418;SDS011;5256;48.728;9.140;2023-07-08T07:35:51;0.20;;;0.20;;
10418;SDS011;5256;48.728;9.140;2023-07-08T07:38:17;0.20;;;0.20;;
10418;SDS011;5256;48.728;9.140;2023-07-08T07:40:43;0.20;;;0.20;;
10418;SDS011;5256;48.728;9.140;2023-07-08T07:43:09;0.20;;;0.20;;
10418;SDS011;5256;48.728;9.140;2023-07-08T07:45:35;0.20;;;0.20;;
10418;SDS011;5256;48.728;9.140;2023-07-08T07:48:01;0.20;;;0.20;;
10418;SDS011;5256;48.728;9.140;2023-07-08T07:50:27;0.20;;;0.20;;
10418;SDS011;5256;48.728;9.140;2023-07-08T07:52:53;0.20;;;0.20;;
10418;SDS011;5256;48.728;9.140;2023-07-08T07:55:18;0.20;;;0.20;;
10418;SDS011;5256;48.728;9.140;2023-07-08T07:57:44;0.13;;;0.13;;
10418;SDS011;5256;48.728;9.140;2023-07-08T08:00:11;0.10;;;0.10;;
10418;SDS011;5256;48.728;9.140;2023-07-08T08:02:39;0.10;;;0.10;;
10418;SDS011;5256;48.728;9.140;2023-07-08T08:05:05;0.10;;;0.10;;
10418;SDS011;5256;48.728;9.140;2023-07-08T08:07:31;0.10;;;0.10;;
10418;SDS011;5256;48.728;9.140;2023-07-08T08:09:56;0.10;;;0.10;;
10418;SDS011;5256;48.728;9.140;2023-07-08T08:12:22;0.10;;;0.10;;
10418;SDS011;5256;48.728;9.140;2023-07-08T08:14:49;0.10;;;0.10;;
10418;SDS011;5256;48.728;9.140;2023-07-08T08:17:18;0.10;;;0.10;;
10418;SDS011;5256;48.728;9.140;2023-07-08T08:19:43;0.20;;;0.20;;
10418;SDS011;5256;48.728;9.140;2023-07-08T08:22:09;0.10;;;0.10;;
10418;SDS011;5256;48.728;9.140;2023-07-08T08:24:34;0.10;;;0.10;;
10418;SDS011;5256;48.728;9.140;2023-07-08T08:27:00;0.10;;;0.10;;
10418;SDS011;5256;48.728;9.140;2023-07-08T08:29:25;0.10;;;0.10;;
10418;SDS011;5256;48.728;9.140;2023-07-08T08:31:51;0.10;;;0.10;;
10418;SDS011;5256;48.728;9.140;2023-07-08T08:34:19;0.10;;;0.10;;
10418;SDS011;5256;48.728;9.140;2023-07-08T08:36:45;0.10;;;0.10;;
10418;SDS011;5256;48.728;9.140;2023-07-08T08:39:10;0.10;;;0.10;;
10418;SDS011;5256;48.728;9.140;2023-07-08T08:41:37;0.10;;;0.10;;
10418;SDS011;5256;48.728;9.140;2023-07-08T08:44:05;0.10;;;0.10;;
10418;SDS011;5256;48.728;9.140;2023-07-08T08:46:38;0.10;;;0.10;;
10418;SDS011;5256;48.728;9.140;2023-07-08T08:51:46;0.10;;;0.10;;
10418;SDS011;5256;48.728;9.140;2023-07-08T08:54:13;0.10;;;0.10;;
10418;SDS011;5256;48.728;9.140;2023-07-08T08:56:42;0.10;;;0.10;;
10418;SDS011;5256;48.728;9.140;2023-07-08T09:01:55;0.10;;;0.10;;
10418;SDS011;5256;48.728;9.140;2023-07-08T09:04:26;0.10;;;0.10;;
10418;SDS011;5256;48.728;9.140;2023-07-08T09:07:00;0.10;;;0.10;;
10418;SDS011;5256;48.728;9.140;2023-07-08T09:09:35;0.10;;;0.10;;
10418;SDS011;5256;48.728;9.140;2023-07-08T09:12:06;0.13;;;0.13;;
10418;SDS011;5256;48.728;9.140;2023-07-08T09:14:37;0.10;;;0.10;;
10418;SDS011;5256;48.728;9.140;2023-07-08T09:19:58;0.10;;;0.10;;
10418;SDS011;5256;48.728;9.140;2023-07-08T09:27:54;0.10;;;0.10;;
10418;SDS011;5256;48.728;9.140;2023-07-08T09:30:21;0.10;;;0.10;;
10418;SDS011;5256;48.728;9.140;2023-07-08T09:32:48;0.10;;;0.10;;
10418;SDS011;5256;48.728;9.140;2023-07-08T09:35:56;0.10;;;0.10;;
10418;SDS011;5256;48.728;9.140;2023-07-08T09:38:15;0.10;;;0.10;;
10418;SDS011;5256;48.728;9.140;2023-07-08T09:40:49;0.10;;;0.10;;
10418;SDS011;5256;48.728;9.140;2023-07-08T09:43:26;0.10;;;0.10;;
10418;SDS011;5256;48.728;9.140;2023-07-08T09:45:57;0.10;;;0.10;;
10418;SDS011;5256;48.728;9.140;2023-07-08T09:48:25;0.10;;;0.10;;
10418;SDS011;5256;48.728;9.140;2023-07-08T09:50:53;0.10;;;0.10;;
10418;SDS011;5256;48.728;9.140;2023-07-08T09:53:21;0.10;;;0.10;;
10418;SDS011;5256;48.728;9.140;2023-07-08T09:55:46;0.10;;;0.10;;
10418;SDS011;5256;48.728;9.140;2023-07-08T09:58:18;0.10;;;0.10;;
10418;SDS011;5256;48.728;9.140;2023-07-08T10:00:57;0.10;;;0.10;;
10418;SDS011;5256;48.728;9.140;2023-07-08T10:05:56;0.10;;;0.10;;
10418;SDS011;5256;48.728;9.140;2023-07-08T10:08:28;0.10;;;0.10;;
10418;SDS011;5256;48.728;9.140;2023-07-08T10:13:44;0.10;;;0.10;;
10418;SDS011;5256;48.728;9.140;2023-07-08T10:16:28;0.10;;;0.10;;
10418;SDS011;5256;48.728;9.140;2023-07-08T10:18:56;0.10;;;0.10;;
10418;SDS011;5256;48.728;9.140;2023-07-08T10:24:18;0.10;;;0.10;;
10418;SDS011;5256;48.728;9.140;2023-07-08T10:32:24;0.10;;;0.10;;
10418;SDS011;5256;48.728;9.140;2023-07-08T10:35:10;0.00;;;0.00;;
10418;SDS011;5256;48.728;9.140;2023-07-08T10:41:12;0.10;;;0.10;;
10418;SDS011;5256;48.728;9.140;2023-07-08T10:43:58;0.00;;;0.00;;
10418;SDS011;5256;48.728;9.140;2023-07-08T10:46:32;0.07;;;0.07;;
10418;SDS011;5256;48.728;9.140;2023-07-08T10:55:37;0.00;;;0.00;;
10418;SDS011;5256;48.728;9.140;2023-07-08T11:00:56;0.10;;;0.10;;
10418;SDS011;5256;48.728;9.140;2023-07-08T11:06:16;0.07;;;0.07;;
10418;SDS011;5256;48.728;9.140;2023-07-08T11:08:48;0.10;;;0.10;;
10418;SDS011;5256;48.728;9.140;2023-07-08T11:11:26;0.10;;;0.10;;
10418;SDS011;5256;48.728;9.140;2023-07-08T11:14:17;0.00;;;0.00;;
10418;SDS011;5256;48.728;9.140;2023-07-08T11:22:45;0.10;;;0.10;;
10418;SDS011;5256;48.728;9.140;2023-07-08T11:25:17;0.10;;;0.10;;
10418;SDS011;5256;48.728;9.140;2023-07-08T11:27:45;0.10;;;0.10;;
10418;SDS011;5256;48.728;9.140;2023-07-08T11:30:19;0.10;;;0.10;;
10418;SDS011;5256;48.728;9.140;2023-07-08T11:32:52;0.00;;;0.00;;
10418;SDS011;5256;48.728;9.140;2023-07-08T11:38:02;0.10;;;0.10;;
10418;SDS011;5256;48.728;9.140;2023-07-08T11:40:29;0.10;;;0.10;;
10418;SDS011;5256;48.728;9.140;2023-07-08T11:43:02;0.10;;;0.10;;
10418;SDS011;5256;48.728;9.140;2023-07-08T11:45:38;0.10;;;0.10;;
10418;SDS011;5256;48.728;9.140;2023-07-08T11:48:13;0.10;;;0.10;;
10418;SDS011;5256;48.728;9.140;2023-07-08T11:50:43;0.10;;;0.10;;
10418;SDS011;5256;48.728;9.140;2023-07-08T11:53:30;0.10;;;0.10;;
10418;SDS011;5256;48.728;9.140;2023-07-08T12:09:13;0.10;;;0.10;;
10418;SDS011;5256;48.728;9.140;2023-07-08T12:11:45;0.10;;;0.10;;
10418;SDS011;5256;48.728;9.140;2023-07-08T12:14:12;0.10;;;0.10;;
10418;SDS011;5256;48.728;9.140;2023-07-08T12:16:39;0.10;;;0.10;;
10418;SDS011;5256;48.728;9.140;2023-07-08T12:19:07;0.10;;;0.10;;
10418;SDS011;5256;48.728;9.140;2023-07-08T12:21:38;0.10;;;0.10;;
10418;SDS011;5256;48.728;9.140;2023-07-08T12:24:06;0.10;;;0.10;;
10418;SDS011;5256;48.728;9.140;2023-07-08T12:26:35;0.10;;;0.10;;
10418;SDS011;5256;48.728;9.140;2023-07-08T12:29:01;0.10;;;0.10;;
10418;SDS011;5256;48.728;9.140;2023-07-08T12:31:27;0.10;;;0.10;;
10418;SDS011;5256;48.728;9.140;2023-07-08T12:33:54;0.10;;;0.10;;
10418;SDS011;5256;48.728;9.140;2023-07-08T12:36:21;0.10;;;0.10;;
10418;SDS011;5256;48.728;9.140;2023-07-08T12:38:50;0.10;;;0.10;;
10418;SDS011;5256;48.728;9.140;2023-07-08T12:41:18;0.10;;;0.10;;
10418;SDS011;5256;48.728;9.140;2023-07-08T12:43:49;0.10;;;0.10;;
10418;SDS011;5256;48.728;9.140;2023-07-08T12:46:17;0.10;;;0.10;;
10418;SDS011;5256;48.728;9.140;2023-07-08T12:48:44;0.10;;;0.10;;
10418;SDS011;5256;48.728;9.140;2023-07-08T12:51:20;0.10;;;0.10;;
10418;SDS011;5256;48.728;9.140;2023-07-08T12:53:48;0.10;;;0.10;;
10418;SDS011;5256;48.728;9.140;2023-07-08T12:56:16;0.00;;;0.00;;
10418;SDS011;5256;48.728;9.140;2023-07-08T12:58:47;0.10;;;0.10;;
10418;SDS011;5256;48.728;9.140;2023-07-08T13:01:17;0.10;;;0.10;;
10418;SDS011;5256;48.728;9.140;2023-07-08T13:03:45;0.10;;;0.10;;
10418;SDS011;5256;48.728;9.140;2023-07-08T13:06:15;0.10;;;0.10;;
10418;SDS011;5256;48.728;9.140;2023-07-08T13:08:42;0.10;;;0.10;;
10418;SDS011;5256;48.728;9.140;2023-07-08T13:11:11;0.10;;;0.10;;
10418;SDS011;5256;48.728;9.140;2023-07-08T13:13:43;0.10;;;0.10;;
10418;SDS011;5256;48.728;9.140;2023-07-08T13:16:15;0.10;;;0.10;;
10418;SDS011;5256;48.728;9.140;2023-07-08T13:18:42;0.10;;;0.10;;
10418;SDS011;5256;48.728;9.140;2023-07-08T13:21:13;0.10;;;0.10;;
10418;SDS011;5256;48.728;9.140;2023-07-08T13:23:40;0.10;;;0.10;;
10418;SDS011;5256;48.728;9.140;2023-07-08T13:26:17;0.10;;;0.10;;
10418;SDS011;5256;48.728;9.140;2023-07-08T13:28:44;0.10;;;0.10;;
10418;SDS011;5256;48.728;9.140;2023-07-08T13:33:47;0.10;;;0.10;;
10418;SDS011;5256;48.728;9.140;2023-07-08T13:36:19;0.10;;;0.10;;
10418;SDS011;5256;48.728;9.140;2023-07-08T13:39:06;0.10;;;0.10;;
10418;SDS011;5256;48.728;9.140;2023-07-08T13:41:33;0.10;;;0.10;;
10418;SDS011;5256;48.728;9.140;2023-07-08T13:44:03;0.10;;;0.10;;
10418;SDS011;5256;48.728;9.140;2023-07-08T13:46:37;0.10;;;0.10;;
10418;SDS011;5256;48.728;9.140;2023-07-08T13:49:12;0.03;;;0.03;;
10418;SDS011;5256;48.728;9.140;2023-07-08T13:51:39;0.10;;;0.10;;
10418;SDS011;5256;48.728;9.140;2023-07-08T13:57:00;0.10;;;0.10;;
10418;SDS011;5256;48.728;9.140;2023-07-08T13:59:26;0.00;;;0.00;;
10418;SDS011;5256;48.728;9.140;2023-07-08T14:01:53;0.10;;;0.10;;
10418;SDS011;5256;48.728;9.140;2023-07-08T14:04:23;0.10;;;0.10;;
10418;SDS011;5256;48.728;9.140;2023-07-08T14:06:57;0.10;;;0.10;;
10418;SDS011;5256;48.728;9.140;2023-07-08T14:09:23;0.10;;;0.10;;
10418;SDS011;5256;48.728;9.140;2023-07-08T14:11:49;0.10;;;0.10;;
10418;SDS011;5256;48.728;9.140;2023-07-08T14:14:16;0.00;;;0.00;;
10418;SDS011;5256;48.728;9.140;2023-07-08T14:16:43;0.00;;;0.00;;
10418;SDS011;5256;48.728;9.140;2023-07-08T14:19:21;0.00;;;0.00;;
10418;SDS011;5256;48.728;9.140;2023-07-08T14:21:56;0.10;;;0.10;;
10418;SDS011;5256;48.728;9.140;2023-07-08T14:24:48;0.10;;;0.10;;
10418;SDS011;5256;48.728;9.140;2023-07-08T14:27:14;0.10;;;0.10;;
10418;SDS011;5256;48.728;9.140;2023-07-08T14:29:41;0.10;;;0.10;;
10418;SDS011;5256;48.728;9.140;2023-07-08T14:32:41;0.10;;;0.10;;
10418;SDS011;5256;48.728;9.140;2023-07-08T14:35:02;0.10;;;0.10;;
10418;SDS011;5256;48.728;9.140;2023-07-08T14:37:54;0.03;;;0.03;;
10418;SDS011;5256;48.728;9.140;2023-07-08T14:40:23;0.10;;;0.10;;
10418;SDS011;5256;48.728;9.140;2023-07-08T14:43:03;0.00;;;0.00;;
10418;SDS011;5256;48.728;9.140;2023-07-08T14:45:33;0.10;;;0.10;;
10418;SDS011;5256;48.728;9.140;2023-07-08T14:48:09;0.10;;;0.10;;
10418;SDS011;5256;48.728;9.140;2023-07-08T14:50:36;0.00;;;0.00;;
10418;SDS011;5256;48.728;9.140;2023-07-08T14:53:02;0.10;;;0.10;;
10418;SDS011;5256;48.728;9.140;2023-07-08T14:55:28;0.10;;;0.10;;
10418;SDS011;5256;48.728;9.140;2023-07-08T14:57:53;0.10;;;0.10;;
10418;SDS011;5256;48.728;9.140;2023-07-08T15:00:21;0.10;;;0.10;;
10418;SDS011;5256;48.728;9.140;2023-07-08T15:02:48;0.00;;;0.00;;
10418;SDS011;5256;48.728;9.140;2023-07-08T15:05:22;0.10;;;0.10;;
10418;SDS011;5256;48.728;9.140;2023-07-08T15:07:51;0.10;;;0.10;;
10418;SDS011;5256;48.728;9.140;2023-07-08T15:10:19;0.10;;;0.10;;
10418;SDS011;5256;48.728;9.140;2023-07-08T15:12:46;0.10;;;0.10;;
10418;SDS011;5256;48.728;9.140;2023-07-08T15:15:17;0.10;;;0.10;;
10418;SDS011;5256;48.728;9.140;2023-07-08T15:17:48;0.10;;;0.10;;
10418;SDS011;5256;48.728;9.140;2023-07-08T15:20:14;0.10;;;0.10;;
10418;SDS011;5256;48.728;9.140;2023-07-08T15:22:41;0.00;;;0.00;;
10418;SDS011;5256;48.728;9.140;2023-07-08T15:25:08;0.10;;;0.10;;
10418;SDS011;5256;48.728;9.140;2023-07-08T15:27:48;0.10;;;0.10;;
10418;SDS011;5256;48.728;9.140;2023-07-08T15:30:18;0.07;;;0.07;;
10418;SDS011;5256;48.728;9.140;2023-07-08T15:32:45;0.10;;;0.10;;
10418;SDS011;5256;48.728;9.140;2023-07-08T15:35:12;0.10;;;0.10;;
10418;SDS011;5256;48.728;9.140;2023-07-08T15:37:41;0.10;;;0.10;;
10418;SDS011;5256;48.728;9.140;2023-07-08T15:40:07;0.10;;;0.10;;
10418;SDS011;5256;48.728;9.140;2023-07-08T15:42:37;0.10;;;0.10;;
10418;SDS011;5256;48.728;9.140;2023-07-08T15:45:11;0.10;;;0.10;;
10418;SDS011;5256;48.728;9.140;2023-07-08T15:47:48;0.10;;;0.10;;
10418;SDS011;5256;48.728;9.140;2023-07-08T15:50:15;0.00;;;0.00;;
10418;SDS011;5256;48.728;9.140;2023-07-08T15:52:43;0.10;;;0.10;;
10418;SDS011;5256;48.728;9.140;2023-07-08T15:55:09;0.10;;;0.10;;
10418;SDS011;5256;48.728;9.140;2023-07-08T15:57:46;0.10;;;0.10;;
10418;SDS011;5256;48.728;9.140;2023-07-08T16:00:21;0.00;;;0.00;;
10418;SDS011;5256;48.728;9.140;2023-07-08T16:02:50;0.10;;;0.10;;
10418;SDS011;5256;48.728;9.140;2023-07-08T16:05:19;0.10;;;0.10;;
10418;SDS011;5256;48.728;9.140;2023-07-08T16:07:48;0.10;;;0.10;;
10418;SDS011;5256;48.728;9.140;2023-07-08T16:10:15;0.10;;;0.10;;
10418;SDS011;5256;48.728;9.140;2023-07-08T16:12:41;0.10;;;0.10;;
10418;SDS011;5256;48.728;9.140;2023-07-08T16:15:18;0.10;;;0.10;;
10418;SDS011;5256;48.728;9.140;2023-07-08T16:17:55;0.10;;;0.10;;
10418;SDS011;5256;48.728;9.140;2023-07-08T16:20:23;0.10;;;0.10;;
10418;SDS011;5256;48.728;9.140;2023-07-08T16:22:50;0.10;;;0.10;;
10418;SDS011;5256;48.728;9.140;2023-07-08T16:25:17;0.10;;;0.10;;